Time;durP1;ratioP1;P1;durP2;ratioP2;P2;SDS_P1;SDS_P2;PMS_P1;PMS_P2;Temp;Humidity;BMP_temperature;BMP_pressure;BME280_temperature;BME280_humidity;BME280_pressure;Samples;Min_cycle;Max_cycle;Signal;HPM_P1;HPM_P2
2022/01/04 00:01:29;;;;;;;;;;;8.40;1.00;;;;;;5054302;28;19920;-79
2022/01/04 00:03:55;;;;;;;;;;;8.40;1.00;;;;;;5038130;28;20401;-79
2022/01/04 00:06:20;;;;;;;;;;;8.40;1.00;;;;;;5037734;28;19917;-79
2022/01/04 00:08:46;;;;;;;;;;;8.30;1.00;;;;;;5040181;28;19910;-79
2022/01/04 00:11:17;;;;;;;;;;;8.30;1.00;;;;;;5037764;28;20305;-79
2022/01/04 00:13:43;;;;;;;;;;;8.30;1.00;;;;;;5037959;28;19910;-79
2022/01/04 00:16:10;;;;;;;;;;;8.30;1.00;;;;;;5038360;28;19919;-80
2022/01/04 00:18:40;;;;;;;;;;;8.30;1.00;;;;;;5038986;28;19914;-80
2022/01/04 00:21:06;;;;;;;;;;;8.30;1.00;;;;;;5037822;28;20344;-79
2022/01/04 00:23:31;;;;;;;;;;;8.30;1.00;;;;;;5038195;28;19914;-79
2022/01/04 00:25:58;;;;;;;;;;;8.30;1.00;;;;;;5038257;28;19921;-79
2022/01/04 00:28:24;;;;;;;;;;;8.30;1.00;;;;;;5049806;28;19949;-79
2022/01/04 00:30:49;;;;;;;;;;;8.30;1.00;;;;;;5048363;28;19932;-79
2022/01/04 00:33:17;;;;;;;;;;;8.20;1.00;;;;;;5039188;28;20405;-79
2022/01/04 00:35:43;;;;;;;;;;;8.20;1.00;;;;;;5037249;28;19925;-79
2022/01/04 00:38:08;;;;;;;;;;;8.20;1.00;;;;;;5036179;28;19919;-80
2022/01/04 00:40:34;;;;;;;;;;;8.20;1.00;;;;;;5037623;28;20377;-79
2022/01/04 00:42:59;;;;;;;;;;;8.20;1.00;;;;;;5037312;28;19913;-79
2022/01/04 00:45:25;;;;;;;;;;;8.20;1.00;;;;;;5033343;28;19922;-79
2022/01/04 00:50:20;;;;;;;;;;;8.20;1.00;;;;;;5033201;28;19984;-79
2022/01/04 00:52:45;;;;;;;;;;;8.20;1.00;;;;;;5035095;28;20342;-79
2022/01/04 00:55:10;;;;;;;;;;;8.20;1.00;;;;;;5034601;28;19951;-79
2022/01/04 00:57:36;;;;;;;;;;;8.20;1.00;;;;;;5036305;28;19914;-79
2022/01/04 01:00:02;;;;;;;;;;;8.20;1.00;;;;;;5035614;28;19936;-79
2022/01/04 01:02:28;;;;;;;;;;;8.20;1.00;;;;;;5034972;28;19937;-78
2022/01/04 01:04:53;;;;;;;;;;;8.20;1.00;;;;;;5035982;28;19913;-79
2022/01/04 01:07:19;;;;;;;;;;;8.20;1.00;;;;;;5032115;28;19928;-79
2022/01/04 01:10:02;;;;;;;;;;;8.10;1.00;;;;;;5036247;28;19917;-79
2022/01/04 01:12:27;;;;;;;;;;;8.10;1.00;;;;;;5035146;28;20448;-79
2022/01/04 01:14:53;;;;;;;;;;;8.10;1.00;;;;;;5035667;28;19913;-78
2022/01/04 01:17:18;;;;;;;;;;;8.10;1.00;;;;;;5035324;28;20044;-79
2022/01/04 01:19:43;;;;;;;;;;;8.10;1.00;;;;;;5034995;28;19914;-79
2022/01/04 01:22:09;;;;;;;;;;;8.10;1.00;;;;;;5035196;28;19956;-79
2022/01/04 01:24:34;;;;;;;;;;;8.10;1.00;;;;;;5046846;28;19924;-79
2022/01/04 01:27:00;;;;;;;;;;;8.10;1.00;;;;;;5035064;28;19936;-79
2022/01/04 01:29:25;;;;;;;;;;;8.10;1.00;;;;;;5035194;28;19914;-79
2022/01/04 01:31:51;;;;;;;;;;;8.10;1.00;;;;;;5036104;28;19917;-79
2022/01/04 01:34:16;;;;;;;;;;;8.10;1.00;;;;;;5034690;28;19971;-79
2022/01/04 01:36:41;;;;;;;;;;;8.10;1.00;;;;;;5035116;28;19913;-79
2022/01/04 01:39:08;;;;;;;;;;;8.10;1.00;;;;;;5035879;28;19920;-79
2022/01/04 01:41:33;;;;;;;;;;;8.10;1.00;;;;;;5036621;28;19909;-79
2022/01/04 01:43:58;;;;;;;;;;;8.10;1.00;;;;;;5035410;28;20007;-79
2022/01/04 01:46:24;;;;;;;;;;;8.10;1.00;;;;;;5036324;28;19924;-79
2022/01/04 01:48:49;;;;;;;;;;;8.10;1.00;;;;;;5034893;28;20277;-79
2022/01/04 01:51:17;;;;;;;;;;;8.10;1.00;;;;;;5034534;28;19989;-79
2022/01/04 01:53:43;;;;;;;;;;;8.10;1.00;;;;;;5034207;28;19949;-79
2022/01/04 01:56:08;;;;;;;;;;;8.10;1.00;;;;;;5036551;28;20258;-79
2022/01/04 01:58:34;;;;;;;;;;;8.10;1.00;;;;;;5035198;28;19935;-79
2022/01/04 02:00:59;;;;;;;;;;;8.10;1.00;;;;;;5036449;28;19944;-79
2022/01/04 02:03:25;;;;;;;;;;;8.10;1.00;;;;;;5034907;28;19936;-79
2022/01/04 02:05:51;;;;;;;;;;;8.10;1.00;;;;;;5034385;28;19917;-79
2022/01/04 02:08:17;;;;;;;;;;;8.10;1.00;;;;;;5038984;28;19923;-79
2022/01/04 02:10:43;;;;;;;;;;;8.10;1.00;;;;;;5039460;28;19913;-79
2022/01/04 02:13:09;;;;;;;;;;;8.00;1.00;;;;;;5037830;28;19913;-80
2022/01/04 02:15:34;;;;;;;;;;;8.10;1.00;;;;;;5040927;28;19915;-79
2022/01/04 02:18:00;;;;;;;;;;;8.00;1.00;;;;;;5039263;28;20317;-79
2022/01/04 02:20:25;;;;;;;;;;;8.00;1.00;;;;;;5041320;28;19909;-79
2022/01/04 02:22:52;;;;;;;;;;;8.00;1.00;;;;;;5035828;28;19984;-79
2022/01/04 02:25:17;;;;;;;;;;;8.00;1.00;;;;;;5032026;28;19924;-79
2022/01/04 02:27:43;;;;;;;;;;;8.00;1.00;;;;;;5039326;28;19913;-79
2022/01/04 02:30:10;;;;;;;;;;;8.00;1.00;;;;;;5039821;28;19913;-79
2022/01/04 02:32:36;;;;;;;;;;;8.00;1.00;;;;;;5040509;28;19948;-79
2022/01/04 02:35:02;;;;;;;;;;;8.00;1.00;;;;;;5039303;28;19917;-79
2022/01/04 02:37:28;;;;;;;;;;;8.00;1.00;;;;;;5037274;28;19936;-79
2022/01/04 02:39:54;;;;;;;;;;;8.00;1.00;;;;;;5040273;28;19913;-79
2022/01/04 02:42:20;;;;;;;;;;;8.00;1.00;;;;;;5038802;28;19913;-79
2022/01/04 02:44:46;;;;;;;;;;;8.00;1.00;;;;;;5039622;28;20284;-79
2022/01/04 02:47:12;;;;;;;;;;;8.00;1.00;;;;;;5041114;28;19960;-79
2022/01/04 02:49:38;;;;;;;;;;;8.00;1.00;;;;;;5039263;28;19909;-79
2022/01/04 02:52:03;;;;;;;;;;;7.90;1.00;;;;;;5053412;28;19916;-79
2022/01/04 02:54:29;;;;;;;;;;;7.90;1.00;;;;;;5039249;28;19913;-80
2022/01/04 02:56:54;;;;;;;;;;;7.90;1.00;;;;;;5038676;28;19913;-80
2022/01/04 02:59:20;;;;;;;;;;;7.90;1.00;;;;;;5037669;28;19914;-80
2022/01/04 03:01:45;;;;;;;;;;;7.90;1.00;;;;;;5040385;28;19909;-80
2022/01/04 03:04:11;;;;;;;;;;;7.90;1.00;;;;;;5039012;28;19917;-80
2022/01/04 03:06:36;;;;;;;;;;;7.90;1.00;;;;;;5038819;28;19913;-80
2022/01/04 03:09:04;;;;;;;;;;;7.90;1.00;;;;;;5040167;28;19920;-80
2022/01/04 03:11:29;;;;;;;;;;;7.90;1.00;;;;;;5036401;28;19913;-80
2022/01/04 03:13:55;;;;;;;;;;;7.90;1.00;;;;;;5038225;28;19913;-80
2022/01/04 03:16:20;;;;;;;;;;;7.90;1.00;;;;;;5038779;28;19916;-79
2022/01/04 03:19:03;;;;;;;;;;;7.90;1.00;;;;;;5038087;28;19960;-79
2022/01/04 03:21:39;;;;;;;;;;;7.90;1.00;;;;;;5033471;28;19910;-79
2022/01/04 03:24:05;;;;;;;;;;;7.90;1.00;;;;;;5037157;28;19921;-79
2022/01/04 03:26:31;;;;;;;;;;;7.90;1.00;;;;;;5039785;28;20270;-79
2022/01/04 03:28:57;;;;;;;;;;;7.90;1.00;;;;;;5035480;28;19913;-79
2022/01/04 03:31:22;;;;;;;;;;;7.90;1.00;;;;;;5039241;28;19917;-79
2022/01/04 03:33:48;;;;;;;;;;;7.90;1.00;;;;;;5037284;28;19913;-79
2022/01/04 03:36:14;;;;;;;;;;;7.90;1.00;;;;;;5038052;28;19924;-79
2022/01/04 03:38:40;;;;;;;;;;;7.90;1.00;;;;;;5037238;28;19913;-79
2022/01/04 03:41:08;;;;;;;;;;;7.90;1.00;;;;;;5044036;28;20405;-79
2022/01/04 03:43:33;;;;;;;;;;;7.90;1.00;;;;;;5045788;28;20437;-79
2022/01/04 03:45:59;;;;;;;;;;;8.00;1.00;;;;;;5043577;28;19967;-79
2022/01/04 03:48:24;;;;;;;;;;;8.00;1.00;;;;;;5038351;28;19913;-79
2022/01/04 03:50:50;;;;;;;;;;;8.00;1.00;;;;;;5036997;28;20381;-79
2022/01/04 03:53:15;;;;;;;;;;;8.00;1.00;;;;;;5036902;28;19920;-79
2022/01/04 03:55:41;;;;;;;;;;;8.00;1.00;;;;;;5037583;28;20008;-79
2022/01/04 03:58:06;;;;;;;;;;;8.00;1.00;;;;;;5037741;28;19913;-79
2022/01/04 04:00:32;;;;;;;;;;;8.00;1.00;;;;;;5038163;28;20294;-79
2022/01/04 04:02:57;;;;;;;;;;;8.00;1.00;;;;;;5037687;28;19913;-79
2022/01/04 04:05:23;;;;;;;;;;;8.00;1.00;;;;;;5036847;28;19936;-79
2022/01/04 04:07:48;;;;;;;;;;;8.00;1.00;;;;;;5037298;28;19956;-79
2022/01/04 04:10:14;;;;;;;;;;;8.00;1.00;;;;;;5037932;28;19909;-79
2022/01/04 04:12:39;;;;;;;;;;;8.00;1.00;;;;;;5036047;28;19913;-79
2022/01/04 04:15:08;;;;;;;;;;;8.00;1.00;;;;;;5038108;28;19914;-79
2022/01/04 04:17:34;;;;;;;;;;;8.00;1.00;;;;;;5026642;28;20381;-78
2022/01/04 04:20:00;;;;;;;;;;;8.00;1.00;;;;;;5038080;28;19964;-79
2022/01/04 04:22:25;;;;;;;;;;;8.00;1.00;;;;;;5036620;28;20324;-79
2022/01/04 04:24:51;;;;;;;;;;;8.00;1.00;;;;;;5035286;28;19972;-79
2022/01/04 04:27:16;;;;;;;;;;;8.00;1.00;;;;;;5036393;28;19913;-79
2022/01/04 04:29:42;;;;;;;;;;;8.00;1.00;;;;;;5036062;28;19921;-79
2022/01/04 04:32:08;;;;;;;;;;;8.00;1.00;;;;;;5038303;28;19996;-79
2022/01/04 04:34:33;;;;;;;;;;;8.00;1.00;;;;;;5036664;28;20274;-79
2022/01/04 04:36:59;;;;;;;;;;;8.00;1.00;;;;;;5037730;28;20407;-79
2022/01/04 04:39:24;;;;;;;;;;;8.00;1.00;;;;;;5038306;28;19913;-79
2022/01/04 04:41:50;;;;;;;;;;;8.00;1.00;;;;;;5036931;28;19921;-79
2022/01/04 04:44:16;;;;;;;;;;;8.00;1.00;;;;;;5031862;28;19924;-79
2022/01/04 04:46:41;;;;;;;;;;;8.00;1.00;;;;;;5035785;28;19920;-79
2022/01/04 04:49:07;;;;;;;;;;;8.00;1.00;;;;;;5035406;28;20296;-79
2022/01/04 04:51:32;;;;;;;;;;;8.00;1.00;;;;;;5036002;28;19913;-79
2022/01/04 04:53:58;;;;;;;;;;;8.00;1.00;;;;;;5036283;28;19920;-80
2022/01/04 04:56:23;;;;;;;;;;;8.00;1.00;;;;;;5035399;28;19924;-79
2022/01/04 04:58:49;;;;;;;;;;;8.00;1.00;;;;;;5037506;28;19914;-79
2022/01/04 05:01:14;;;;;;;;;;;8.00;1.00;;;;;;5036864;28;19909;-79
2022/01/04 05:03:40;;;;;;;;;;;8.00;1.00;;;;;;5033160;28;20102;-79
2022/01/04 05:06:05;;;;;;;;;;;8.00;1.00;;;;;;5037506;28;19925;-79
2022/01/04 05:08:31;;;;;;;;;;;8.00;1.00;;;;;;5034703;28;19917;-79
2022/01/04 05:10:57;;;;;;;;;;;8.10;1.00;;;;;;5037407;28;20340;-79
2022/01/04 05:13:23;;;;;;;;;;;8.10;1.00;;;;;;5035942;28;19935;-79
2022/01/04 05:15:49;;;;;;;;;;;8.10;1.00;;;;;;5036437;28;19909;-79
2022/01/04 05:18:14;;;;;;;;;;;8.10;1.00;;;;;;5035212;28;19985;-79
2022/01/04 05:20:40;;;;;;;;;;;8.10;1.00;;;;;;5036502;28;19917;-79
2022/01/04 05:23:05;;;;;;;;;;;8.10;1.00;;;;;;5036850;28;19959;-79
2022/01/04 05:25:31;;;;;;;;;;;8.20;1.00;;;;;;5037122;28;19966;-79
2022/01/04 05:27:56;;;;;;;;;;;8.20;1.00;;;;;;5036387;28;19920;-79
2022/01/04 05:30:22;;;;;;;;;;;8.10;1.00;;;;;;5036587;28;19910;-79
2022/01/04 05:32:47;;;;;;;;;;;8.20;1.00;;;;;;5036475;28;19913;-79
2022/01/04 05:35:13;;;;;;;;;;;8.10;1.00;;;;;;5038166;28;19917;-79
2022/01/04 05:37:38;;;;;;;;;;;8.20;1.00;;;;;;5037244;28;19967;-79
2022/01/04 05:40:04;;;;;;;;;;;8.10;1.00;;;;;;5037130;28;19955;-79
2022/01/04 05:42:29;;;;;;;;;;;8.20;1.00;;;;;;5034951;28;20004;-79
2022/01/04 05:44:55;;;;;;;;;;;8.20;1.00;;;;;;5036172;28;19920;-79
2022/01/04 05:47:20;;;;;;;;;;;8.20;1.00;;;;;;5037119;28;19921;-79
2022/01/04 05:49:46;;;;;;;;;;;8.10;1.00;;;;;;5036560;28;20489;-79
2022/01/04 05:52:11;;;;;;;;;;;8.10;1.00;;;;;;5035778;28;19956;-79
2022/01/04 05:54:37;;;;;;;;;;;8.10;1.00;;;;;;5028052;28;19913;-79
2022/01/04 05:57:02;;;;;;;;;;;8.10;1.00;;;;;;5036913;28;19996;-79
2022/01/04 05:59:28;;;;;;;;;;;8.10;1.00;;;;;;5036942;28;20287;-79
2022/01/04 06:01:53;;;;;;;;;;;8.10;1.00;;;;;;5034126;28;19956;-77
2022/01/04 06:04:19;;;;;;;;;;;8.10;1.00;;;;;;5037085;28;19913;-81
2022/01/04 06:06:44;;;;;;;;;;;8.10;1.00;;;;;;5035846;28;19913;-79
2022/01/04 06:09:19;;;;;;;;;;;8.10;1.00;;;;;;5036063;28;20169;-79
2022/01/04 06:16:57;;;;;;;;;;;8.10;1.00;;;;;;5034029;28;19916;-79
2022/01/04 06:19:23;;;;;;;;;;;8.10;1.00;;;;;;5036778;28;20082;-79
2022/01/04 06:21:48;;;;;;;;;;;8.00;1.00;;;;;;5037108;28;19913;-79
2022/01/04 06:24:14;;;;;;;;;;;8.00;1.00;;;;;;5037096;28;19916;-80
2022/01/04 06:26:39;;;;;;;;;;;8.00;1.00;;;;;;5037373;28;19936;-80
2022/01/04 06:29:06;;;;;;;;;;;8.00;1.00;;;;;;5034300;28;20907;-79
2022/01/04 06:31:31;;;;;;;;;;;8.10;1.00;;;;;;5037335;28;19917;-80
2022/01/04 06:33:57;;;;;;;;;;;8.10;1.00;;;;;;5036420;28;19913;-79
2022/01/04 06:36:23;;;;;;;;;;;8.10;1.00;;;;;;5037072;28;19937;-79
2022/01/04 06:38:49;;;;;;;;;;;8.00;1.00;;;;;;5036422;28;20266;-79
2022/01/04 06:41:14;;;;;;;;;;;8.10;1.00;;;;;;5039728;28;19919;-80
2022/01/04 06:43:40;;;;;;;;;;;8.10;1.00;;;;;;5037226;28;20440;-80
2022/01/04 06:46:05;;;;;;;;;;;8.10;1.00;;;;;;5036470;28;19918;-79
2022/01/04 06:48:31;;;;;;;;;;;8.10;1.00;;;;;;5037903;28;19944;-79
2022/01/04 06:50:57;;;;;;;;;;;8.10;1.00;;;;;;5037785;28;19920;-79
2022/01/04 06:53:22;;;;;;;;;;;8.00;1.00;;;;;;5039415;28;19913;-80
2022/01/04 06:55:50;;;;;;;;;;;8.00;1.00;;;;;;5043315;28;19920;-80
2022/01/04 06:58:16;;;;;;;;;;;8.00;1.00;;;;;;5044231;28;19913;-79
2022/01/04 07:00:41;;;;;;;;;;;8.00;1.00;;;;;;5047817;28;19920;-79
2022/01/04 07:03:07;;;;;;;;;;;8.00;1.00;;;;;;5040868;28;19913;-79
2022/01/04 07:05:35;;;;;;;;;;;8.00;1.00;;;;;;5039902;28;19925;-79
2022/01/04 07:08:01;;;;;;;;;;;8.00;1.00;;;;;;5039182;28;19917;-80
2022/01/04 07:10:26;;;;;;;;;;;8.00;1.00;;;;;;5040780;28;19913;-80
2022/01/04 07:12:52;;;;;;;;;;;8.00;1.00;;;;;;5038808;28;20380;-80
2022/01/04 07:15:17;;;;;;;;;;;8.10;1.00;;;;;;5039465;28;20423;-80
2022/01/04 07:17:42;;;;;;;;;;;8.10;1.00;;;;;;5038998;28;19917;-80
2022/01/04 07:20:09;;;;;;;;;;;8.20;1.00;;;;;;5038822;28;19909;-79
2022/01/04 07:22:34;;;;;;;;;;;8.20;1.00;;;;;;5039054;28;19909;-80
2022/01/04 07:25:00;;;;;;;;;;;8.20;1.00;;;;;;5038915;28;19981;-80
2022/01/04 07:27:25;;;;;;;;;;;8.30;1.00;;;;;;5036989;28;19913;-81
2022/01/04 07:29:50;;;;;;;;;;;8.30;1.00;;;;;;5038119;28;19917;-80
2022/01/04 07:32:16;;;;;;;;;;;8.30;1.00;;;;;;5039064;28;19909;-80
2022/01/04 07:34:41;;;;;;;;;;;8.30;1.00;;;;;;5038257;28;19924;-80
2022/01/04 07:37:07;;;;;;;;;;;8.30;1.00;;;;;;5038756;28;19955;-80
2022/01/04 07:39:32;;;;;;;;;;;8.30;1.00;;;;;;5039120;28;19913;-80
2022/01/04 07:41:58;;;;;;;;;;;8.20;1.00;;;;;;5036864;28;19916;-80
2022/01/04 07:44:25;;;;;;;;;;;8.20;1.00;;;;;;5037336;28;19920;-80
2022/01/04 07:46:50;;;;;;;;;;;8.20;1.00;;;;;;5037275;28;19936;-80
2022/01/04 07:49:16;;;;;;;;;;;8.20;1.00;;;;;;5038121;28;19913;-79
2022/01/04 07:51:41;;;;;;;;;;;8.20;1.00;;;;;;5024414;28;19921;-80
2022/01/04 07:54:07;;;;;;;;;;;8.20;1.00;;;;;;5033717;28;19913;-79
2022/01/04 07:56:32;;;;;;;;;;;8.20;1.00;;;;;;5030306;28;19963;-79
2022/01/04 07:59:00;;;;;;;;;;;8.10;1.00;;;;;;5020214;28;19920;-80
2022/01/04 08:01:29;;;;;;;;;;;8.20;1.00;;;;;;5038494;28;20288;-80
2022/01/04 08:03:54;;;;;;;;;;;8.10;1.00;;;;;;5037207;28;19957;-80
2022/01/04 08:06:20;;;;;;;;;;;8.10;1.00;;;;;;5034017;28;19925;-79
2022/01/04 08:08:45;;;;;;;;;;;8.10;1.00;;;;;;5030463;28;20112;-80
2022/01/04 08:11:11;;;;;;;;;;;8.10;1.00;;;;;;5024671;28;20011;-80
2022/01/04 08:13:36;;;;;;;;;;;8.10;1.00;;;;;;5038367;28;20008;-80
2022/01/04 08:16:02;;;;;;;;;;;8.10;1.00;;;;;;5029705;28;19928;-79
2022/01/04 08:18:27;;;;;;;;;;;8.10;1.00;;;;;;5033736;28;19967;-80
2022/01/04 08:20:57;;;;;;;;;;;8.10;1.00;;;;;;5028287;28;19913;-80
2022/01/04 08:23:24;;;;;;;;;;;8.10;1.00;;;;;;5031049;28;19917;-80
2022/01/04 08:25:49;;;;;;;;;;;8.10;1.00;;;;;;5035183;28;19917;-80
2022/01/04 08:28:15;;;;;;;;;;;8.10;1.00;;;;;;5035408;28;19913;-80
2022/01/04 08:30:42;;;;;;;;;;;8.10;1.00;;;;;;5032730;28;19925;-80
2022/01/04 08:33:08;;;;;;;;;;;8.10;1.00;;;;;;5034032;28;19963;-80
2022/01/04 08:35:33;;;;;;;;;;;8.10;1.00;;;;;;5035125;28;19921;-80
2022/01/04 08:37:59;;;;;;;;;;;8.10;1.00;;;;;;5034501;28;19963;-80
2022/01/04 08:40:25;;;;;;;;;;;8.10;1.00;;;;;;5032974;28;19920;-80
2022/01/04 08:42:50;;;;;;;;;;;8.10;1.00;;;;;;5032481;28;19921;-80
2022/01/04 08:45:17;;;;;;;;;;;8.10;1.00;;;;;;5034743;28;19920;-80
2022/01/04 08:47:43;;;;;;;;;;;8.10;1.00;;;;;;5036011;28;20293;-79
2022/01/04 08:50:10;;;;;;;;;;;8.10;1.00;;;;;;5029063;28;20031;-79
2022/01/04 08:52:35;;;;;;;;;;;8.20;1.00;;;;;;5036372;28;19940;-80
2022/01/04 08:55:01;;;;;;;;;;;8.20;1.00;;;;;;5035863;28;19912;-80
2022/01/04 08:57:26;;;;;;;;;;;8.20;1.00;;;;;;5036172;28;19913;-80
2022/01/04 08:59:54;;;;;;;;;;;8.20;1.00;;;;;;5032392;28;19913;-79
2022/01/04 09:02:20;;;;;;;;;;;8.20;1.00;;;;;;5036054;28;19909;-80
2022/01/04 09:04:46;;;;;;;;;;;8.30;1.00;;;;;;5035373;28;19923;-81
2022/01/04 09:07:11;;;;;;;;;;;8.20;1.00;;;;;;5036939;28;19910;-80
2022/01/04 09:09:36;;;;;;;;;;;8.20;1.00;;;;;;5036369;28;19920;-80
2022/01/04 09:12:02;;;;;;;;;;;8.20;1.00;;;;;;5029731;28;19933;-80
2022/01/04 09:14:41;;;;;;;;;;;8.20;1.00;;;;;;5028113;28;19980;-80
2022/01/04 09:19:52;;;;;;;;;;;8.20;1.00;;;;;;5033688;28;19920;-80
2022/01/04 09:22:17;;;;;;;;;;;8.20;1.00;;;;;;5031691;28;19913;-80
2022/01/04 09:24:43;;;;;;;;;;;8.20;1.00;;;;;;5034798;28;20377;-79
2022/01/04 09:27:10;;;;;;;;;;;8.20;1.00;;;;;;5028970;28;19913;-80
2022/01/04 09:29:36;;;;;;;;;;;8.20;1.00;;;;;;5034523;28;19920;-80
2022/01/04 09:32:02;;;;;;;;;;;8.20;1.00;;;;;;5035921;28;20369;-79
2022/01/04 09:34:28;;;;;;;;;;;8.30;1.00;;;;;;5032448;28;20349;-79
2022/01/04 09:36:53;;;;;;;;;;;8.40;1.00;;;;;;5035334;28;19920;-80
2022/01/04 09:39:22;;;;;;;;;;;8.40;1.00;;;;;;5031972;28;19931;-79
2022/01/04 09:41:48;;;;;;;;;;;8.50;1.00;;;;;;5028560;28;19924;-79
2022/01/04 09:44:14;;;;;;;;;;;8.50;1.00;;;;;;5031055;28;19924;-80
2022/01/04 09:46:39;;;;;;;;;;;8.50;1.00;;;;;;5049044;28;20000;-80
2022/01/04 09:49:05;;;;;;;;;;;8.50;1.00;;;;;;5028077;28;19917;-80
2022/01/04 09:51:31;;;;;;;;;;;8.50;1.00;;;;;;5032424;28;19959;-80
2022/01/04 09:53:56;;;;;;;;;;;8.50;1.00;;;;;;5030562;28;19951;-80
2022/01/04 09:56:22;;;;;;;;;;;8.50;1.00;;;;;;5034317;28;19913;-80
2022/01/04 09:58:48;;;;;;;;;;;8.40;1.00;;;;;;5034428;28;19931;-80
2022/01/04 10:01:34;;;;;;;;;;;8.40;1.00;;;;;;5038443;28;19919;-81
2022/01/04 10:04:00;;;;;;;;;;;8.40;1.00;;;;;;5031964;28;19916;-80
2022/01/04 10:06:26;;;;;;;;;;;8.40;1.00;;;;;;5032266;28;19963;-80
2022/01/04 10:08:53;;;;;;;;;;;8.40;1.00;;;;;;5022703;28;20350;-80
2022/01/04 10:11:28;;;;;;;;;;;8.40;1.00;;;;;;5022541;28;19913;-81
2022/01/04 10:13:54;;;;;;;;;;;8.40;1.00;;;;;;5022634;28;19921;-80
2022/01/04 10:16:19;;;;;;;;;;;8.40;1.00;;;;;;5033750;28;19924;-79
2022/01/04 10:18:48;;;;;;;;;;;8.40;1.00;;;;;;5032740;28;19909;-80
2022/01/04 10:21:14;;;;;;;;;;;8.40;1.00;;;;;;5032004;28;19913;-80
2022/01/04 10:23:58;;;;;;;;;;;8.40;1.00;;;;;;5031325;28;19959;-79
2022/01/04 10:26:28;;;;;;;;;;;8.40;1.00;;;;;;5027441;28;20008;-79
2022/01/04 10:28:53;;;;;;;;;;;8.50;1.00;;;;;;5019389;28;19920;-79
2022/01/04 10:31:19;;;;;;;;;;;8.50;1.00;;;;;;5033601;28;20370;-78
2022/01/04 10:33:50;;;;;;;;;;;8.50;1.00;;;;;;5035517;28;19914;-79
2022/01/04 10:36:19;;;;;;;;;;;8.50;1.00;;;;;;5037005;28;20385;-80
2022/01/04 10:38:46;;;;;;;;;;;8.50;1.00;;;;;;5035468;28;19913;-79
2022/01/04 10:41:15;;;;;;;;;;;8.50;1.00;;;;;;5034732;28;19920;-80
2022/01/04 10:43:43;;;;;;;;;;;8.50;1.00;;;;;;5031469;28;19917;-79
2022/01/04 10:46:08;;;;;;;;;;;8.50;1.00;;;;;;5035157;28;19971;-80
2022/01/04 10:48:36;;;;;;;;;;;8.50;1.00;;;;;;5034427;28;19909;-79
2022/01/04 10:51:05;;;;;;;;;;;8.50;1.00;;;;;;5034114;28;19924;-79
2022/01/04 10:53:41;;;;;;;;;;;8.50;1.00;;;;;;5031379;28;19918;-79
2022/01/04 10:56:08;;;;;;;;;;;8.50;1.00;;;;;;5025556;28;19914;-79
2022/01/04 10:58:36;;;;;;;;;;;8.50;1.00;;;;;;5033648;28;20396;-80
2022/01/04 11:01:04;;;;;;;;;;;8.60;1.00;;;;;;5027596;28;19913;-79
2022/01/04 11:03:31;;;;;;;;;;;8.60;1.00;;;;;;5045730;28;19913;-79
2022/01/04 11:05:58;;;;;;;;;;;8.70;1.00;;;;;;5038371;28;19968;-80
2022/01/04 11:08:24;;;;;;;;;;;8.70;1.00;;;;;;5033320;28;19914;-79
2022/01/04 11:10:50;;;;;;;;;;;8.70;1.00;;;;;;5024974;28;19914;-80
2022/01/04 11:13:16;;;;;;;;;;;8.70;1.00;;;;;;5032584;28;19913;-80
2022/01/04 11:15:42;;;;;;;;;;;8.70;1.00;;;;;;5029915;28;19914;-79
2022/01/04 11:18:07;;;;;;;;;;;8.70;1.00;;;;;;5028563;28;19917;-79
2022/01/04 11:20:34;;;;;;;;;;;8.70;1.00;;;;;;5038405;28;19915;-80
2022/01/04 11:23:00;;;;;;;;;;;8.70;1.00;;;;;;5036954;28;20000;-79
2022/01/04 11:25:26;;;;;;;;;;;8.70;1.00;;;;;;5040250;28;19917;-79
2022/01/04 11:27:53;;;;;;;;;;;8.80;1.00;;;;;;5039994;28;19956;-79
2022/01/04 11:30:18;;;;;;;;;;;8.90;1.00;;;;;;5024883;28;19932;-79
2022/01/04 11:32:45;;;;;;;;;;;8.90;1.00;;;;;;5035775;28;20305;-81
2022/01/04 11:35:20;;;;;;;;;;;9.00;1.00;;;;;;5062379;22;19928;-80
2022/01/04 11:37:59;;;;;;;;;;;9.10;1.00;;;;;;5048741;28;19966;-79
2022/01/04 11:40:34;;;;;;;;;;;9.10;1.00;;;;;;5046237;28;19915;-79
2022/01/04 11:43:00;;;;;;;;;;;9.20;1.00;;;;;;5044667;28;19916;-79
2022/01/04 11:45:39;;;;;;;;;;;9.30;1.00;;;;;;5053569;28;20339;-78
2022/01/04 11:48:23;;;;;;;;;;;9.30;1.00;;;;;;5047749;28;19913;-78
2022/01/04 11:50:49;;;;;;;;;;;9.40;1.00;;;;;;5069027;28;20438;-79
2022/01/04 11:53:14;;;;;;;;;;;9.40;1.00;;;;;;5053812;28;19913;-80
2022/01/04 11:55:47;;;;;;;;;;;9.40;1.00;;;;;;5044722;28;19920;-79
2022/01/04 11:58:16;;;;;;;;;;;9.40;1.00;;;;;;5048784;28;19921;-80
2022/01/04 12:00:45;;;;;;;;;;;9.40;1.00;;;;;;5045215;28;19920;-81
2022/01/04 12:03:12;;;;;;;;;;;9.40;1.00;;;;;;5046950;28;19996;-80
2022/01/04 12:05:39;;;;;;;;;;;9.30;1.00;;;;;;5045258;28;19917;-80
2022/01/04 12:08:15;;;;;;;;;;;9.30;1.00;;;;;;5053882;28;19921;-80
2022/01/04 12:10:41;;;;;;;;;;;9.30;1.00;;;;;;5058038;28;19921;-80
2022/01/04 12:13:09;;;;;;;;;;;9.30;1.00;;;;;;5031464;28;20013;-81
2022/01/04 12:15:34;;;;;;;;;;;9.20;1.00;;;;;;5041968;28;20007;-80
2022/01/04 12:18:00;;;;;;;;;;;9.20;1.00;;;;;;5044728;28;19952;-79
2022/01/04 12:20:41;;;;;;;;;;;9.20;1.00;;;;;;5048267;28;19944;-79
2022/01/04 12:23:25;;;;;;;;;;;9.10;1.00;;;;;;5038237;28;19913;-80
2022/01/04 12:26:06;;;;;;;;;;;9.10;1.00;;;;;;5040302;28;19921;-80
2022/01/04 12:28:40;;;;;;;;;;;9.10;1.00;;;;;;5059472;28;19955;-79
2022/01/04 12:31:18;;;;;;;;;;;9.10;1.00;;;;;;5055336;28;19908;-79
2022/01/04 12:33:45;;;;;;;;;;;9.10;1.00;;;;;;5042285;28;19932;-81
2022/01/04 12:36:11;;;;;;;;;;;9.10;1.00;;;;;;5043551;28;19960;-79
2022/01/04 12:38:37;;;;;;;;;;;9.20;1.00;;;;;;5041818;28;19913;-81
2022/01/04 12:41:04;;;;;;;;;;;9.20;1.00;;;;;;5034399;28;20028;-80
2022/01/04 12:43:31;;;;;;;;;;;9.20;1.00;;;;;;5043681;28;19971;-79
2022/01/04 12:45:59;;;;;;;;;;;9.30;1.00;;;;;;5042714;28;20445;-79
2022/01/04 12:48:47;;;;;;;;;;;9.20;1.00;;;;;;5037588;28;20426;-80
2022/01/04 12:51:25;;;;;;;;;;;9.20;1.00;;;;;;5038316;28;19921;-80
2022/01/04 12:53:53;;;;;;;;;;;9.20;1.00;;;;;;5035864;28;19913;-80
2022/01/04 12:56:18;;;;;;;;;;;9.20;1.00;;;;;;5032987;28;19913;-80
2022/01/04 12:58:44;;;;;;;;;;;9.20;1.00;;;;;;5066938;28;19913;-79
2022/01/04 13:01:13;;;;;;;;;;;9.20;1.00;;;;;;5054847;28;19964;-80
2022/01/04 13:03:39;;;;;;;;;;;9.20;1.00;;;;;;5039440;28;19920;-80
2022/01/04 13:06:05;;;;;;;;;;;9.30;1.00;;;;;;5039293;28;20441;-79
2022/01/04 13:08:31;;;;;;;;;;;9.30;1.00;;;;;;5029190;28;19998;-78
2022/01/04 13:11:03;;;;;;;;;;;9.40;1.00;;;;;;5036040;28;19913;-80
2022/01/04 13:13:30;;;;;;;;;;;9.30;1.00;;;;;;5038420;28;20019;-79
2022/01/04 13:16:14;;;;;;;;;;;9.30;1.00;;;;;;5042658;28;19909;-79
2022/01/04 13:18:39;;;;;;;;;;;9.30;1.00;;;;;;5030498;28;19913;-80
2022/01/04 13:21:05;;;;;;;;;;;9.30;1.00;;;;;;5050857;28;19909;-79
2022/01/04 13:23:35;;;;;;;;;;;9.30;1.00;;;;;;5032074;28;20604;-80
2022/01/04 13:26:01;;;;;;;;;;;9.30;1.00;;;;;;5032133;28;19917;-80
2022/01/04 13:28:26;;;;;;;;;;;9.20;1.00;;;;;;5051111;28;19919;-80
2022/01/04 13:30:52;;;;;;;;;;;9.30;1.00;;;;;;5044980;28;19921;-80
2022/01/04 13:33:22;;;;;;;;;;;9.20;1.00;;;;;;5033235;28;19916;-79
2022/01/04 13:35:48;;;;;;;;;;;9.20;1.00;;;;;;5053866;28;19924;-80
2022/01/04 13:38:21;;;;;;;;;;;9.20;1.00;;;;;;5032766;28;19963;-79
2022/01/04 13:40:47;;;;;;;;;;;9.20;1.00;;;;;;5042433;28;20058;-80
2022/01/04 13:43:14;;;;;;;;;;;9.10;1.00;;;;;;5052430;28;19974;-80
2022/01/04 13:45:50;;;;;;;;;;;9.20;1.00;;;;;;5041483;28;19972;-78
2022/01/04 13:48:22;;;;;;;;;;;9.20;1.00;;;;;;5032601;28;19944;-80
2022/01/04 13:50:47;;;;;;;;;;;9.10;1.00;;;;;;5049388;28;19917;-79
2022/01/04 13:53:15;;;;;;;;;;;9.20;1.00;;;;;;5037861;28;19913;-78
2022/01/04 13:55:58;;;;;;;;;;;9.20;1.00;;;;;;5042180;28;20387;-78
2022/01/04 13:58:36;;;;;;;;;;;9.20;1.00;;;;;;5044169;28;19960;-78
2022/01/04 14:01:20;;;;;;;;;;;9.10;1.00;;;;;;5035995;28;19913;-80
2022/01/04 14:04:09;;;;;;;;;;;9.10;1.00;;;;;;5063648;28;19920;-79
2022/01/04 14:06:55;;;;;;;;;;;9.10;1.00;;;;;;5034669;28;20395;-80
2022/01/04 14:09:27;;;;;;;;;;;9.10;1.00;;;;;;5032286;28;19999;-80
2022/01/04 14:11:54;;;;;;;;;;;9.10;1.00;;;;;;5046987;28;19913;-80
2022/01/04 14:14:21;;;;;;;;;;;9.00;1.00;;;;;;5061209;28;20348;-80
2022/01/04 14:16:48;;;;;;;;;;;9.00;1.00;;;;;;5052554;28;19975;-79
2022/01/04 14:19:15;;;;;;;;;;;9.00;1.00;;;;;;5046245;28;19948;-80
2022/01/04 14:22:01;;;;;;;;;;;9.00;1.00;;;;;;5037111;28;19914;-79
2022/01/04 14:24:35;;;;;;;;;;;9.00;1.00;;;;;;5043104;28;19912;-79
2022/01/04 14:27:05;;;;;;;;;;;9.00;1.00;;;;;;5043998;28;20364;-79
2022/01/04 14:29:39;;;;;;;;;;;9.00;1.00;;;;;;5060672;28;19914;-79
2022/01/04 14:32:17;;;;;;;;;;;8.80;1.00;;;;;;5044177;28;20372;-77
2022/01/04 14:34:42;;;;;;;;;;;8.50;1.00;;;;;;5045292;28;20298;-79
2022/01/04 14:37:08;;;;;;;;;;;8.40;1.00;;;;;;5044502;28;19913;-78
2022/01/04 14:39:34;;;;;;;;;;;8.30;99.90;;;;;;5038205;28;19920;-79
2022/01/04 14:42:01;;;;;;;;;;;8.20;99.90;;;;;;5051138;28;19909;-79
2022/01/04 14:44:28;;;;;;;;;;;8.20;99.90;;;;;;5056119;28;19916;-78
2022/01/04 14:46:54;;;;;;;;;;;8.20;1.00;;;;;;5044665;28;19952;-79
2022/01/04 14:49:19;;;;;;;;;;;8.10;1.00;;;;;;5040406;28;19913;-79
2022/01/04 14:51:45;;;;;;;;;;;8.10;1.00;;;;;;5040594;28;19921;-79
2022/01/04 14:54:10;;;;;;;;;;;8.00;44.00;;;;;;5037105;28;19917;-80